Time;durP1;ratioP1;P1;durP2;ratioP2;P2;SDS_P1;SDS_P2;PMS_P1;PMS_P2;Temp;Humidity;BMP_temperature;BMP_pressure;BME280_temperature;BME280_humidity;BME280_pressure;Samples;Min_cycle;Max_cycle;Signal;HPM_P1;HPM_P2
2022/03/04 00:01:00;;;;;;;21.25;11.98;;;6.40;98.10;;;;;;5076216;28;20024;-84
2022/03/04 00:03:25;;;;;;;16.90;11.10;;;6.40;98.00;;;;;;5074715;28;20020;-84
2022/03/04 00:05:51;;;;;;;18.75;11.60;;;6.30;98.10;;;;;;5058311;28;20070;-84
2022/03/04 00:08:17;;;;;;;18.13;11.52;;;6.30;98.00;;;;;;5058197;28;20021;-84
2022/03/04 00:10:42;;;;;;;21.73;12.20;;;6.30;98.10;;;;;;5058129;28;20016;-84
2022/03/04 00:13:08;;;;;;;18.73;11.73;;;6.30;98.10;;;;;;5058081;28;20090;-85
2022/03/04 00:15:34;;;;;;;17.58;11.73;;;6.30;98.00;;;;;;5058007;28;20123;-84
2022/03/04 00:18:00;;;;;;;20.02;11.70;;;6.30;98.00;;;;;;5057934;28;20025;-84
2022/03/04 00:20:26;;;;;;;22.17;12.07;;;6.30;98.00;;;;;;5075864;28;20527;-84
2022/03/04 00:22:51;;;;;;;17.58;11.30;;;6.30;98.00;;;;;;5058176;28;20024;-84
2022/03/04 00:25:18;;;;;;;19.27;11.90;;;6.30;98.00;;;;;;5057827;28;20024;-85
2022/03/04 00:27:44;;;;;;;18.58;11.48;;;6.20;97.90;;;;;;5057719;28;20036;-85
2022/03/04 00:30:10;;;;;;;18.58;11.30;;;6.20;97.90;;;;;;5057700;28;20024;-85
2022/03/04 00:32:36;;;;;;;16.75;11.40;;;6.20;98.00;;;;;;5057630;28;20063;-85
2022/03/04 00:35:04;;;;;;;17.60;10.95;;;6.20;98.00;;;;;;5057602;28;20024;-85
2022/03/04 00:37:30;;;;;;;18.55;11.23;;;6.20;97.90;;;;;;5057853;28;20020;-84
2022/03/04 00:39:56;;;;;;;17.73;11.32;;;6.20;97.90;;;;;;5075511;28;20505;-84
2022/03/04 00:42:21;;;;;;;16.05;10.57;;;6.20;97.90;;;;;;5056961;28;20027;-84
2022/03/04 00:44:47;;;;;;;18.25;11.38;;;6.20;97.90;;;;;;5057429;28;20024;-84
2022/03/04 00:47:13;;;;;;;19.05;11.20;;;6.20;97.80;;;;;;5057462;28;20498;-84
2022/03/04 00:49:39;;;;;;;16.35;11.13;;;6.20;97.80;;;;;;5057406;28;20036;-84
2022/03/04 00:52:05;;;;;;;16.92;11.23;;;6.10;97.80;;;;;;5057320;28;20119;-84
2022/03/04 00:54:31;;;;;;;17.40;11.50;;;6.20;97.90;;;;;;5057154;28;20025;-84
2022/03/04 00:56:57;;;;;;;19.20;11.80;;;6.10;97.80;;;;;;5057873;28;20027;-85
2022/03/04 00:59:22;;;;;;;18.05;11.55;;;6.10;97.70;;;;;;5075159;28;20052;-84
2022/03/04 01:01:48;;;;;;;17.88;10.90;;;6.10;98.00;;;;;;5058308;28;20503;-85
2022/03/04 01:04:14;;;;;;;19.63;11.05;;;6.10;97.70;;;;;;5061472;28;20551;-84
2022/03/04 01:06:39;;;;;;;19.27;11.60;;;6.10;97.70;;;;;;5073768;28;20032;-85
2022/03/04 01:09:06;;;;;;;18.65;11.88;;;6.10;97.70;;;;;;5073718;28;20032;-84
2022/03/04 01:11:32;;;;;;;16.52;10.55;;;6.10;97.70;;;;;;5073692;28;20411;-84
2022/03/04 01:13:58;;;;;;;20.35;12.48;;;6.10;97.70;;;;;;5074642;28;20024;-84
2022/03/04 01:16:24;;;;;;;20.73;12.15;;;6.00;97.70;;;;;;5073599;28;20472;-84
2022/03/04 01:18:50;;;;;;;18.15;11.00;;;6.00;97.70;;;;;;5074849;28;20384;-84
2022/03/04 01:21:16;;;;;;;18.30;11.07;;;6.00;97.70;;;;;;5073387;28;20020;-85
2022/03/04 01:23:41;;;;;;;16.55;11.23;;;6.00;97.60;;;;;;5073327;28;20103;-84
2022/03/04 01:26:07;;;;;;;20.05;11.13;;;6.00;97.70;;;;;;5073338;28;20023;-84
2022/03/04 01:28:33;;;;;;;17.83;11.45;;;6.00;97.70;;;;;;5074860;28;20030;-84
2022/03/04 01:30:58;;;;;;;17.25;11.20;;;6.00;97.70;;;;;;5073213;28;20048;-85
2022/03/04 01:33:24;;;;;;;17.50;11.07;;;6.00;97.70;;;;;;5073152;28;20031;-85
2022/03/04 01:35:50;;;;;;;20.02;11.38;;;6.00;98.00;;;;;;5073147;28;20025;-84
2022/03/04 01:38:16;;;;;;;16.33;10.68;;;6.00;97.70;;;;;;5073126;28;20025;-84
2022/03/04 01:40:41;;;;;;;15.52;10.50;;;6.00;97.70;;;;;;5074301;28;20020;-84
2022/03/04 01:43:07;;;;;;;16.85;11.02;;;5.90;97.70;;;;;;5073012;28;20028;-85
2022/03/04 01:45:33;;;;;;;16.50;11.38;;;5.90;97.60;;;;;;5072937;28;20035;-85
2022/03/04 01:47:58;;;;;;;17.90;11.60;;;5.90;97.60;;;;;;5072875;28;20060;-85
2022/03/04 01:50:25;;;;;;;18.08;10.05;;;5.90;97.60;;;;;;5072802;28;20031;-85
2022/03/04 01:52:51;;;;;;;17.15;11.00;;;5.90;97.60;;;;;;5072832;28;20035;-85
2022/03/04 01:55:16;;;;;;;15.07;9.80;;;5.90;97.60;;;;;;5071754;28;20025;-85
2022/03/04 01:57:42;;;;;;;17.45;10.82;;;5.90;97.60;;;;;;5073997;28;20027;-85
2022/03/04 02:00:10;;;;;;;15.50;10.27;;;5.90;97.70;;;;;;5072650;28;20536;-85
2022/03/04 02:02:36;;;;;;;16.42;10.30;;;5.90;97.80;;;;;;5073846;28;20016;-85
2022/03/04 02:05:03;;;;;;;16.95;10.45;;;5.90;97.80;;;;;;5072426;28;20053;-85
2022/03/04 02:07:29;;;;;;;14.88;10.32;;;5.80;97.80;;;;;;5074172;28;20194;-85
2022/03/04 02:09:54;;;;;;;13.73;9.38;;;5.80;97.80;;;;;;5073638;28;20055;-85
2022/03/04 02:12:20;;;;;;;16.00;9.35;;;5.80;97.90;;;;;;5072479;28;20115;-85
2022/03/04 02:14:46;;;;;;;16.00;10.05;;;5.80;97.90;;;;;;5072625;28;20060;-85
2022/03/04 02:17:11;;;;;;;15.68;10.10;;;5.80;97.70;;;;;;5072320;28;20024;-85
2022/03/04 02:19:37;;;;;;;15.55;10.35;;;5.80;97.70;;;;;;5073592;28;20031;-84
2022/03/04 02:22:05;;;;;;;17.98;10.18;;;5.80;97.80;;;;;;5072313;28;20024;-85
2022/03/04 02:24:32;;;;;;;16.20;10.40;;;5.80;97.80;;;;;;5073565;28;20469;-85
2022/03/04 02:27:03;;;;;;;13.68;9.55;;;5.80;97.80;;;;;;5072825;28;20077;-84
2022/03/04 02:29:31;;;;;;;16.73;10.23;;;5.80;97.90;;;;;;5072272;28;20020;-85
2022/03/04 02:31:57;;;;;;;17.08;10.05;;;5.80;97.90;;;;;;5073450;28;20020;-85
2022/03/04 02:34:23;;;;;;;14.80;9.80;;;5.70;98.20;;;;;;5072041;28;20035;-85
2022/03/04 02:36:49;;;;;;;17.42;10.55;;;5.70;97.90;;;;;;5073434;28;20177;-85
2022/03/04 02:39:16;;;;;;;14.88;9.57;;;5.70;97.80;;;;;;5072151;28;20052;-85
2022/03/04 02:41:42;;;;;;;17.13;10.25;;;5.70;97.80;;;;;;5072090;28;20115;-85
2022/03/04 02:44:10;;;;;;;14.82;9.48;;;5.70;97.80;;;;;;5071952;28;20112;-85
2022/03/04 02:46:36;;;;;;;15.00;10.00;;;5.70;97.80;;;;;;5071981;28;20048;-85
2022/03/04 02:49:06;;;;;;;15.52;9.85;;;5.70;97.80;;;;;;5071961;28;20033;-85
2022/03/04 02:51:31;;;;;;;16.48;9.32;;;5.70;97.80;;;;;;5071913;28;20025;-85
2022/03/04 02:53:57;;;;;;;14.15;9.65;;;5.70;97.80;;;;;;5071795;28;20439;-85
2022/03/04 02:56:23;;;;;;;13.93;9.30;;;5.70;97.80;;;;;;5071818;28;20028;-85
2022/03/04 02:58:49;;;;;;;16.45;10.18;;;5.60;97.80;;;;;;5071873;28;20051;-85
2022/03/04 03:01:15;;;;;;;14.18;9.75;;;5.60;97.80;;;;;;5072168;28;20020;-85
2022/03/04 03:03:41;;;;;;;15.45;9.40;;;5.60;97.80;;;;;;5071673;28;20043;-85
2022/03/04 03:06:08;;;;;;;15.07;9.63;;;5.60;97.80;;;;;;5072888;28;20021;-86
2022/03/04 03:08:34;;;;;;;13.43;9.55;;;5.60;97.80;;;;;;5055309;28;20141;-85
2022/03/04 03:10:59;;;;;;;14.00;9.65;;;5.60;97.80;;;;;;5055054;28;20028;-85
2022/03/04 03:13:25;;;;;;;14.85;9.93;;;5.60;97.70;;;;;;5073034;28;20580;-85
2022/03/04 03:15:51;;;;;;;16.85;10.82;;;5.60;97.70;;;;;;5054949;28;20502;-85
2022/03/04 03:18:17;;;;;;;14.35;9.75;;;5.60;97.80;;;;;;5054948;28;20111;-85
2022/03/04 03:20:44;;;;;;;11.77;9.23;;;5.60;97.80;;;;;;5055014;28;20497;-85
2022/03/04 03:23:10;;;;;;;15.73;10.25;;;5.60;97.80;;;;;;5054953;28;20185;-85
2022/03/04 03:25:36;;;;;;;16.30;10.25;;;5.60;97.80;;;;;;5054927;28;20429;-85
2022/03/04 03:28:04;;;;;;;12.90;8.93;;;5.50;97.70;;;;;;5054893;28;20031;-85
2022/03/04 03:30:30;;;;;;;15.20;9.32;;;5.60;97.70;;;;;;5054864;28;20086;-85
2022/03/04 03:32:56;;;;;;;13.32;9.30;;;5.50;97.70;;;;;;5054864;28;20111;-85
2022/03/04 03:35:22;;;;;;;13.20;9.10;;;5.50;97.60;;;;;;5054787;28;20115;-86
2022/03/04 03:37:48;;;;;;;14.75;9.32;;;5.50;97.60;;;;;;5054790;28;20029;-85
2022/03/04 03:40:15;;;;;;;15.45;9.52;;;5.50;97.70;;;;;;5054731;28;20021;-85
2022/03/04 03:42:41;;;;;;;15.65;10.15;;;5.50;97.70;;;;;;5054748;28;20021;-86
2022/03/04 03:45:08;;;;;;;15.90;9.20;;;5.50;97.60;;;;;;5054730;28;20021;-85
2022/03/04 03:47:34;;;;;;;15.80;9.98;;;5.50;97.50;;;;;;5054716;28;20032;-85
2022/03/04 03:50:01;;;;;;;15.45;9.20;;;5.50;97.70;;;;;;5072683;28;20082;-85
2022/03/04 03:52:27;;;;;;;18.45;10.32;;;5.40;97.60;;;;;;5054639;28;20028;-85
2022/03/04 03:54:52;;;;;;;14.70;9.52;;;5.40;97.60;;;;;;5054517;28;20081;-85
2022/03/04 03:57:18;;;;;;;16.17;9.38;;;5.50;97.70;;;;;;5054604;28;20075;-84
2022/03/04 03:59:44;;;;;;;14.32;9.65;;;5.40;97.60;;;;;;5054568;28;20021;-85
2022/03/04 04:02:10;;;;;;;13.15;8.50;;;5.40;97.70;;;;;;5054557;28;20028;-85
2022/03/04 04:04:36;;;;;;;14.10;9.45;;;5.40;97.70;;;;;;5061840;28;20052;-85
2022/03/04 04:07:07;;;;;;;14.07;9.63;;;5.40;97.70;;;;;;5071205;28;20368;-86
2022/03/04 04:09:33;;;;;;;13.57;9.30;;;5.40;97.70;;;;;;5071203;28;20099;-86
2022/03/04 04:11:59;;;;;;;18.15;9.98;;;5.40;97.70;;;;;;5071202;28;20025;-85
2022/03/04 04:14:26;;;;;;;13.95;8.93;;;5.40;97.60;;;;;;5071034;28;20029;-85
2022/03/04 04:16:52;;;;;;;13.93;9.25;;;5.40;97.70;;;;;;5072401;28;20028;-85
2022/03/04 04:19:18;;;;;;;14.38;8.80;;;5.30;97.60;;;;;;5074228;28;20388;-86
2022/03/04 04:21:44;;;;;;;14.38;9.20;;;5.30;97.60;;;;;;5074591;28;20020;-86
2022/03/04 04:24:10;;;;;;;17.05;9.88;;;5.30;97.60;;;;;;5074561;28;20028;-85
2022/03/04 04:26:37;;;;;;;16.55;10.18;;;5.30;97.50;;;;;;5074554;28;20024;-85
2022/03/04 04:29:03;;;;;;;15.23;9.32;;;5.30;97.50;;;;;;5074510;28;20028;-85
2022/03/04 04:31:31;;;;;;;14.38;9.48;;;5.30;97.50;;;;;;5074523;28;20420;-85
2022/03/04 04:33:57;;;;;;;15.10;9.38;;;5.30;97.60;;;;;;5074318;28;20032;-85
2022/03/04 04:36:23;;;;;;;14.63;9.10;;;5.30;97.60;;;;;;5074360;28;20415;-85
2022/03/04 04:38:49;;;;;;;14.82;9.63;;;5.30;97.60;;;;;;5074328;28;20036;-85
2022/03/04 04:41:15;;;;;;;12.82;9.52;;;5.30;97.60;;;;;;5075304;28;20027;-86
2022/03/04 04:43:41;;;;;;;13.00;9.23;;;5.30;97.60;;;;;;5074237;28;20107;-85
2022/03/04 04:46:06;;;;;;;14.05;9.68;;;5.20;97.50;;;;;;5075496;28;20028;-85
2022/03/04 04:48:32;;;;;;;15.18;9.38;;;5.20;97.50;;;;;;5075438;28;20092;-86
2022/03/04 04:50:59;;;;;;;14.75;9.45;;;5.20;97.50;;;;;;5074106;28;20035;-85
2022/03/04 04:53:26;;;;;;;13.77;8.85;;;5.20;97.50;;;;;;5074037;28;20499;-85
2022/03/04 04:55:52;;;;;;;14.60;9.05;;;5.20;97.50;;;;;;5073841;28;20388;-85
2022/03/04 04:58:17;;;;;;;16.17;9.50;;;5.20;97.50;;;;;;5073926;28;20020;-85
2022/03/04 05:00:43;;;;;;;16.15;10.48;;;5.20;97.40;;;;;;5073877;28;20025;-85
2022/03/04 05:03:09;;;;;;;15.15;9.30;;;5.20;97.50;;;;;;5073862;28;20057;-85
2022/03/04 05:05:35;;;;;;;16.55;9.77;;;5.20;97.50;;;;;;5073615;28;20181;-85
2022/03/04 05:08:02;;;;;;;15.20;9.40;;;5.20;97.40;;;;;;5073736;28;20021;-85
2022/03/04 05:10:28;;;;;;;14.10;9.55;;;5.10;97.50;;;;;;5057266;28;20396;-85
2022/03/04 05:12:54;;;;;;;14.98;9.10;;;5.10;97.50;;;;;;5073611;28;20388;-85
2022/03/04 05:15:20;;;;;;;15.57;10.02;;;5.10;97.50;;;;;;5073676;28;20035;-86
2022/03/04 05:17:50;;;;;;;13.73;9.65;;;5.10;97.50;;;;;;5073585;28;20024;-85
2022/03/04 05:20:17;;;;;;;14.90;9.63;;;5.10;97.50;;;;;;5073768;28;20020;-86
2022/03/04 05:22:43;;;;;;;13.68;9.38;;;5.10;97.50;;;;;;5073435;28;20027;-85
2022/03/04 05:25:09;;;;;;;14.95;9.80;;;5.10;97.50;;;;;;5073405;28;20031;-85
2022/03/04 05:27:35;;;;;;;15.65;9.15;;;5.10;97.50;;;;;;5073377;28;20032;-85
2022/03/04 05:30:01;;;;;;;16.50;10.18;;;5.10;97.50;;;;;;5073244;28;20024;-85
2022/03/04 05:32:26;;;;;;;18.30;9.73;;;5.10;97.40;;;;;;5073241;28;20476;-86
2022/03/04 05:34:52;;;;;;;15.68;10.02;;;5.10;97.40;;;;;;5073125;28;20116;-86
2022/03/04 05:37:18;;;;;;;17.27;10.27;;;5.00;97.30;;;;;;5073117;28;20425;-85
2022/03/04 05:39:44;;;;;;;15.80;9.70;;;5.00;97.40;;;;;;5073113;28;20025;-85
2022/03/04 05:42:09;;;;;;;15.88;10.20;;;5.00;97.40;;;;;;5073110;28;20028;-85
2022/03/04 05:44:35;;;;;;;15.25;9.75;;;5.00;97.30;;;;;;5074655;28;20021;-85
2022/03/04 05:47:01;;;;;;;17.17;10.25;;;5.00;97.40;;;;;;5072972;28;20025;-85
2022/03/04 05:49:27;;;;;;;15.20;10.05;;;5.00;97.40;;;;;;5073004;28;20107;-85
2022/03/04 05:51:53;;;;;;;18.38;10.82;;;5.00;97.30;;;;;;5073685;28;20387;-85
2022/03/04 05:54:18;;;;;;;18.10;9.90;;;5.00;97.40;;;;;;5072819;28;20099;-85
2022/03/04 05:56:44;;;;;;;17.27;10.52;;;5.00;97.40;;;;;;5072839;28;20021;-85
2022/03/04 05:59:10;;;;;;;17.42;9.93;;;5.00;97.40;;;;;;5072694;28;20021;-86
2022/03/04 06:01:35;;;;;;;17.50;10.50;;;5.00;97.30;;;;;;5072717;28;20024;-85
2022/03/04 06:04:01;;;;;;;20.55;10.95;;;5.00;97.40;;;;;;5072463;28;20093;-86
2022/03/04 06:06:27;;;;;;;18.67;11.43;;;4.90;97.40;;;;;;5072682;28;20116;-85
2022/03/04 06:08:53;;;;;;;20.80;12.15;;;4.90;97.40;;;;;;5072588;28;20024;-85
2022/03/04 06:11:19;;;;;;;21.45;11.88;;;4.90;97.40;;;;;;5072576;28;20029;-85
2022/03/04 06:13:45;;;;;;;19.08;11.18;;;4.90;97.40;;;;;;5072437;28;20029;-85
2022/03/04 06:16:11;;;;;;;18.55;10.30;;;4.90;97.20;;;;;;5072445;28;20104;-85
2022/03/04 06:18:37;;;;;;;19.73;11.32;;;4.90;97.30;;;;;;5072405;28;20503;-85
2022/03/04 06:21:03;;;;;;;20.77;10.95;;;4.90;97.30;;;;;;5072350;28;20070;-85
2022/03/04 06:23:30;;;;;;;16.45;10.82;;;4.90;97.30;;;;;;5072345;28;20024;-85
2022/03/04 06:25:57;;;;;;;17.55;10.55;;;4.90;97.30;;;;;;5072287;28;20475;-86
2022/03/04 06:28:24;;;;;;;19.95;11.80;;;4.90;97.20;;;;;;5072246;28;20025;-85
2022/03/04 06:30:50;;;;;;;17.65;11.10;;;4.90;97.30;;;;;;5072240;28;20028;-85
2022/03/04 06:33:32;;;;;;;16.25;10.85;;;4.90;97.20;;;;;;5072167;28;20476;-85
2022/03/04 06:36:10;;;;;;;17.88;11.05;;;4.90;97.10;;;;;;5072149;28;20145;-85
2022/03/04 06:38:44;;;;;;;16.95;11.02;;;5.00;97.10;;;;;;5072209;28;20048;-86
2022/03/04 06:41:11;;;;;;;18.23;11.20;;;5.10;97.10;;;;;;5071659;28;20025;-86
2022/03/04 06:43:38;;;;;;;17.52;10.80;;;5.20;96.90;;;;;;5072058;28;20346;-85
2022/03/04 06:46:04;;;;;;;17.70;11.32;;;5.20;96.70;;;;;;5072103;28;20020;-85
2022/03/04 06:48:31;;;;;;;18.33;11.30;;;5.40;96.60;;;;;;5072361;28;20035;-85
2022/03/04 06:50:57;;;;;;;19.58;11.80;;;5.50;96.40;;;;;;5072279;28;20108;-85
2022/03/04 06:53:24;;;;;;;17.95;11.68;;;5.90;96.20;;;;;;5072277;28;20056;-85
2022/03/04 06:55:50;;;;;;;19.05;11.65;;;6.00;95.80;;;;;;5071822;28;20032;-85
2022/03/04 06:58:16;;;;;;;18.70;12.15;;;6.30;95.60;;;;;;5071926;28;20370;-86
2022/03/04 07:00:42;;;;;;;18.63;12.30;;;6.60;95.10;;;;;;5073246;28;20096;-85
2022/03/04 07:03:08;;;;;;;17.83;10.73;;;6.90;94.60;;;;;;5073195;28;20075;-85
2022/03/04 07:05:35;;;;;;;20.15;11.82;;;7.20;94.20;;;;;;5071734;28;20046;-85
2022/03/04 07:08:01;;;;;;;19.00;11.43;;;7.30;93.90;;;;;;5071834;28;20029;-84
2022/03/04 07:10:27;;;;;;;19.05;11.35;;;7.10;93.90;;;;;;5071801;28;20071;-84
2022/03/04 07:12:53;;;;;;;19.90;12.35;;;7.00;94.00;;;;;;5071865;28;20522;-85
2022/03/04 07:15:19;;;;;;;20.92;13.15;;;7.00;94.10;;;;;;5072985;28;20021;-85
2022/03/04 07:17:46;;;;;;;17.27;11.38;;;7.00;94.10;;;;;;5071784;28;20387;-85
2022/03/04 07:20:12;;;;;;;16.45;11.60;;;6.90;94.20;;;;;;5073066;28;20495;-84
2022/03/04 07:22:39;;;;;;;20.27;11.73;;;6.90;94.30;;;;;;5072647;28;20108;-84
2022/03/04 07:25:07;;;;;;;17.77;11.25;;;6.90;94.40;;;;;;5071695;28;20044;-84
2022/03/04 07:27:34;;;;;;;20.05;11.75;;;6.90;94.30;;;;;;5071775;28;20553;-84
2022/03/04 07:30:00;;;;;;;22.15;12.23;;;6.90;94.40;;;;;;5071651;28;20025;-84
2022/03/04 07:32:26;;;;;;;16.73;11.38;;;6.90;94.40;;;;;;5071633;28;20099;-84
2022/03/04 07:34:51;;;;;;;16.58;11.13;;;6.90;94.40;;;;;;5071482;28;20082;-84
2022/03/04 07:37:17;;;;;;;18.17;11.50;;;6.90;94.40;;;;;;5071602;28;20071;-84
2022/03/04 07:39:43;;;;;;;16.90;11.18;;;6.90;94.40;;;;;;5071581;28;20021;-84
2022/03/04 07:42:08;;;;;;;19.90;11.07;;;7.00;94.40;;;;;;5071569;28;20052;-84
2022/03/04 07:44:34;;;;;;;18.90;11.45;;;7.00;94.40;;;;;;5071411;28;20032;-84
2022/03/04 07:47:00;;;;;;;18.13;10.98;;;7.00;94.40;;;;;;5071426;28;20459;-83
2022/03/04 07:49:25;;;;;;;16.90;10.65;;;7.10;94.40;;;;;;5072681;28;20029;-83
2022/03/04 07:51:51;;;;;;;17.85;10.70;;;7.20;94.40;;;;;;5071416;28;20074;-84
2022/03/04 07:54:18;;;;;;;21.15;11.85;;;7.20;94.30;;;;;;5074605;28;20048;-84
2022/03/04 07:56:44;;;;;;;20.55;11.18;;;7.30;94.30;;;;;;5075123;28;20112;-84
2022/03/04 07:59:10;;;;;;;20.40;11.57;;;7.30;94.30;;;;;;5075109;28;20024;-84
2022/03/04 08:01:35;;;;;;;16.75;11.10;;;7.30;94.30;;;;;;5075026;28;20430;-84
2022/03/04 08:04:01;;;;;;;17.27;11.20;;;7.40;94.20;;;;;;5074877;28;20182;-84
2022/03/04 08:06:27;;;;;;;19.65;12.00;;;7.40;94.20;;;;;;5074998;28;20056;-84
2022/03/04 08:08:53;;;;;;;16.50;10.93;;;7.40;94.20;;;;;;5074883;28;20078;-83
2022/03/04 08:11:18;;;;;;;19.55;11.98;;;7.50;94.20;;;;;;5075058;28;20513;-84
2022/03/04 08:13:44;;;;;;;18.17;12.20;;;7.50;94.20;;;;;;5075112;28;20025;-83
2022/03/04 08:16:10;;;;;;;21.98;12.25;;;7.50;94.20;;;;;;5074901;28;20475;-83
2022/03/04 08:18:36;;;;;;;19.63;11.93;;;7.50;94.20;;;;;;5076132;28;20017;-84
2022/03/04 08:21:03;;;;;;;19.65;11.85;;;7.50;94.20;;;;;;5074877;28;20020;-83
2022/03/04 08:23:29;;;;;;;17.02;11.95;;;7.50;94.20;;;;;;5074711;28;20387;-83
2022/03/04 08:25:57;;;;;;;18.15;11.82;;;7.60;94.20;;;;;;5074543;28;20028;-83
2022/03/04 08:28:23;;;;;;;17.63;11.50;;;7.60;94.20;;;;;;5075949;28;20475;-83
2022/03/04 08:30:49;;;;;;;19.08;11.77;;;7.60;94.20;;;;;;5074533;28;20480;-83
2022/03/04 08:33:16;;;;;;;19.95;11.98;;;7.60;94.20;;;;;;5074497;28;20052;-83
2022/03/04 08:35:41;;;;;;;19.13;12.27;;;7.70;94.20;;;;;;5074329;28;20028;-83
2022/03/04 08:38:07;;;;;;;16.90;11.85;;;7.70;94.10;;;;;;5075543;28;20020;-83
2022/03/04 08:40:33;;;;;;;21.58;12.38;;;7.80;94.10;;;;;;5075515;28;20020;-82
2022/03/04 08:42:58;;;;;;;20.58;11.57;;;7.80;94.10;;;;;;5074233;28;20027;-82
2022/03/04 08:45:25;;;;;;;18.25;12.30;;;7.80;94.10;;;;;;5074130;28;20031;-82
2022/03/04 08:47:51;;;;;;;20.42;12.75;;;7.80;94.00;;;;;;5074058;28;20031;-82
2022/03/04 08:50:17;;;;;;;21.38;13.38;;;7.80;94.00;;;;;;5074113;28;20095;-82
2022/03/04 08:52:43;;;;;;;22.05;12.82;;;7.90;94.00;;;;;;5074017;28;20036;-82
2022/03/04 08:55:14;;;;;;;20.27;12.73;;;7.90;93.90;;;;;;5073867;28;20364;-82
2022/03/04 08:57:41;;;;;;;20.63;13.20;;;7.90;93.90;;;;;;5074010;28;20116;-82
2022/03/04 09:00:08;;;;;;;19.90;12.18;;;7.90;93.80;;;;;;5073987;28;20020;-82
2022/03/04 09:02:33;;;;;;;23.90;13.32;;;7.90;93.80;;;;;;5073998;28;20024;-82
2022/03/04 09:04:59;;;;;;;24.80;13.20;;;8.00;93.80;;;;;;5073224;28;20055;-81
2022/03/04 09:07:25;;;;;;;19.80;12.70;;;8.00;93.70;;;;;;5073860;28;20391;-82
2022/03/04 09:09:51;;;;;;;26.08;13.40;;;8.00;93.70;;;;;;5075249;28;20107;-82
2022/03/04 09:12:18;;;;;;;24.20;13.38;;;8.10;93.60;;;;;;5073728;28;20032;-82
2022/03/04 09:14:44;;;;;;;20.85;13.13;;;8.10;93.60;;;;;;5073541;28;20028;-82
2022/03/04 09:17:10;;;;;;;22.48;12.65;;;8.10;93.60;;;;;;5073662;28;20029;-82
2022/03/04 09:19:36;;;;;;;22.65;13.52;;;8.10;93.50;;;;;;5073535;28;20021;-82
2022/03/04 09:22:01;;;;;;;23.13;13.68;;;8.10;93.50;;;;;;5073575;28;20029;-82
2022/03/04 09:24:28;;;;;;;22.95;13.77;;;8.20;93.30;;;;;;5073443;28;20025;-82
2022/03/04 09:26:54;;;;;;;24.88;13.57;;;8.20;93.40;;;;;;5073482;28;20056;-82
2022/03/04 09:29:20;;;;;;;21.95;13.55;;;8.20;93.30;;;;;;5073353;28;20036;-82
2022/03/04 09:31:46;;;;;;;25.50;13.60;;;8.20;93.30;;;;;;5073332;28;20020;-82
2022/03/04 09:34:12;;;;;;;26.60;14.77;;;8.30;93.40;;;;;;5073245;28;20399;-82
2022/03/04 09:36:38;;;;;;;21.20;13.55;;;8.20;93.10;;;;;;5073263;28;20028;-82
2022/03/04 09:39:04;;;;;;;23.17;13.38;;;8.30;93.20;;;;;;5073220;28;20472;-82
2022/03/04 09:41:30;;;;;;;23.67;13.73;;;8.30;93.20;;;;;;5073138;28;20183;-82
2022/03/04 09:43:56;;;;;;;23.17;13.80;;;8.30;93.20;;;;;;5073078;28;20024;-82
2022/03/04 09:46:23;;;;;;;21.02;13.68;;;8.30;93.00;;;;;;5073054;28;20021;-82
2022/03/04 09:48:50;;;;;;;26.23;14.23;;;8.40;93.00;;;;;;5072961;28;20025;-82
2022/03/04 09:51:16;;;;;;;28.90;15.13;;;8.40;92.70;;;;;;5072931;28;20085;-82
2022/03/04 09:53:43;;;;;;;22.95;13.90;;;8.40;92.70;;;;;;5072951;28;20491;-82
2022/03/04 09:56:09;;;;;;;24.42;13.63;;;8.50;92.70;;;;;;5072740;28;20374;-82
2022/03/04 09:58:37;;;;;;;23.08;14.40;;;8.50;92.80;;;;;;5072741;28;20031;-82
2022/03/04 10:01:12;;;;;;;24.58;14.38;;;8.50;92.70;;;;;;5072735;28;20032;-83
2022/03/04 10:03:49;;;;;;;24.92;15.23;;;8.50;92.90;;;;;;5072647;28;20025;-83
2022/03/04 10:06:17;;;;;;;23.40;14.30;;;8.50;92.80;;;;;;5056156;28;20429;-83
2022/03/04 10:08:44;;;;;;;22.42;13.90;;;8.60;92.90;;;;;;5055977;28;20459;-84
2022/03/04 10:11:11;;;;;;;24.55;14.20;;;8.60;92.80;;;;;;5055959;28;20052;-83
2022/03/04 10:13:46;;;;;;;21.75;14.30;;;8.60;92.70;;;;;;5055928;28;20531;-84
2022/03/04 10:16:14;;;;;;;24.25;14.32;;;8.70;92.50;;;;;;5055112;28;20072;-85
2022/03/04 10:18:39;;;;;;;26.35;14.57;;;8.70;92.40;;;;;;5073725;28;20070;-84
2022/03/04 10:21:05;;;;;;;23.75;14.20;;;8.70;92.20;;;;;;5073745;28;20432;-83
2022/03/04 10:23:31;;;;;;;24.80;14.18;;;8.70;92.30;;;;;;5055746;28;20021;-82
2022/03/04 10:26:00;;;;;;;24.27;14.25;;;8.70;92.20;;;;;;5055621;28;20032;-83
2022/03/04 10:28:29;;;;;;;23.25;14.63;;;8.70;92.00;;;;;;5055692;28;20399;-83
2022/03/04 10:30:56;;;;;;;25.17;14.38;;;8.70;91.90;;;;;;5055514;28;20028;-84
2022/03/04 10:33:26;;;;;;;24.42;14.75;;;8.80;91.70;;;;;;5055855;28;20028;-83
2022/03/04 10:36:13;;;;;;;20.55;13.48;;;8.80;92.00;;;;;;5055410;28;20028;-83
2022/03/04 10:38:41;;;;;;;26.00;14.55;;;8.80;92.00;;;;;;5055528;28;20051;-83
2022/03/04 10:41:24;;;;;;;26.20;14.13;;;8.80;91.70;;;;;;5055410;28;20024;-85
2022/03/04 10:43:51;;;;;;;21.45;13.23;;;8.90;91.50;;;;;;5055367;28;20094;-83
2022/03/04 10:46:17;;;;;;;21.08;13.45;;;8.80;91.40;;;;;;5073206;28;20100;-83
2022/03/04 10:48:54;;;;;;;24.95;14.32;;;8.90;91.50;;;;;;5055371;28;20024;-83
2022/03/04 10:51:37;;;;;;;22.67;13.18;;;8.90;91.30;;;;;;5073209;28;20447;-83
2022/03/04 10:54:13;;;;;;;26.35;13.43;;;8.80;90.90;;;;;;5055124;28;20032;-84
2022/03/04 10:56:55;;;;;;;25.90;14.98;;;8.90;91.10;;;;;;5055152;28;20361;-84
2022/03/04 10:59:22;;;;;;;24.00;13.45;;;8.90;91.10;;;;;;5073462;28;20404;-84
2022/03/04 11:01:50;;;;;;;25.30;13.40;;;8.90;91.00;;;;;;5055414;28;20016;-84
2022/03/04 11:04:18;;;;;;;21.85;12.35;;;8.90;90.70;;;;;;5059633;28;20044;-83
2022/03/04 11:06:47;;;;;;;23.67;13.25;;;8.90;90.70;;;;;;5071792;28;20082;-84
2022/03/04 11:09:14;;;;;;;22.00;13.18;;;8.90;90.40;;;;;;5071863;28;20032;-84
2022/03/04 11:11:44;;;;;;;21.67;13.38;;;9.00;90.40;;;;;;5071851;28;20029;-84
2022/03/04 11:14:12;;;;;;;21.52;13.15;;;9.00;90.30;;;;;;5071752;28;20436;-85
2022/03/04 11:16:38;;;;;;;26.15;14.52;;;9.00;90.30;;;;;;5071748;28;20082;-84
2022/03/04 11:19:06;;;;;;;22.63;12.70;;;9.10;90.10;;;;;;5071783;28;20027;-85
2022/03/04 11:21:32;;;;;;;23.08;13.68;;;9.10;90.00;;;;;;5071611;28;20028;-84
2022/03/04 11:23:58;;;;;;;22.00;12.65;;;9.10;90.00;;;;;;5071695;28;20020;-84
2022/03/04 11:26:28;;;;;;;22.08;12.90;;;9.10;90.00;;;;;;5072017;28;20020;-85
2022/03/04 11:28:54;;;;;;;23.27;12.63;;;9.20;90.20;;;;;;5077018;28;20380;-84
2022/03/04 11:31:25;;;;;;;22.40;12.82;;;9.20;90.00;;;;;;5075677;28;20020;-85
2022/03/04 11:34:00;;;;;;;22.35;14.05;;;9.20;89.90;;;;;;5075577;28;20029;-85
2022/03/04 11:36:34;;;;;;;28.83;14.13;;;9.20;89.70;;;;;;5076791;28;20024;-85
2022/03/04 11:39:05;;;;;;;;;;;9.20;89.30;;;;;;5075892;28;20024;-83
2022/03/04 11:41:47;;;;;;;20.40;12.40;;;9.20;89.80;;;;;;5075379;28;19908;-83
2022/03/04 11:44:14;;;;;;;23.55;12.88;;;9.30;89.40;;;;;;5075402;28;20020;-83
2022/03/04 11:46:51;;;;;;;22.58;12.50;;;9.20;89.90;;;;;;5075263;28;20032;-83
2022/03/04 11:49:46;;;;;;;22.23;13.02;;;9.30;89.20;;;;;;5075311;28;20497;-83
2022/03/04 11:52:24;;;;;;;21.10;12.73;;;9.30;89.10;;;;;;5075284;28;20029;-83
2022/03/04 11:54:51;;;;;;;22.27;12.13;;;9.30;89.20;;;;;;5075102;28;20589;-83
2022/03/04 11:57:41;;;;;;;20.13;11.65;;;9.30;89.20;;;;;;5075142;28;20073;-83
2022/03/04 12:00:10;;;;;;;20.45;12.18;;;9.30;89.60;;;;;;5075153;28;20024;-83
2022/03/04 12:02:46;;;;;;;24.15;12.73;;;9.40;89.20;;;;;;5075044;28;20508;-83
2022/03/04 12:05:17;;;;;;;23.48;12.98;;;9.30;88.80;;;;;;5074863;28;20094;-83
2022/03/04 12:07:45;;;;;;;22.90;13.00;;;9.30;88.40;;;;;;5074958;28;20389;-83
2022/03/04 12:10:13;;;;;;;20.58;11.63;;;9.30;88.30;;;;;;5076155;28;20028;-83
2022/03/04 12:12:39;;;;;;;20.05;12.38;;;9.30;87.90;;;;;;5076174;28;20447;-83
2022/03/04 12:15:17;;;;;;;21.08;12.13;;;9.40;88.80;;;;;;5075963;28;20021;-82
2022/03/04 12:18:06;;;;;;;20.83;12.38;;;9.40;89.00;;;;;;5074708;28;20027;-83
2022/03/04 12:20:41;;;;;;;21.38;12.20;;;9.40;88.50;;;;;;5061691;28;20033;-82
2022/03/04 12:23:13;;;;;;;20.90;12.77;;;9.40;88.10;;;;;;5075969;28;20478;-82
2022/03/04 12:25:54;;;;;;;19.08;11.35;;;9.40;88.20;;;;;;5075898;28;20023;-83
2022/03/04 12:28:24;;;;;;;21.67;12.20;;;9.40;88.30;;;;;;5074499;28;20028;-83
2022/03/04 12:31:02;;;;;;;23.92;12.50;;;9.50;88.30;;;;;;5074565;28;20341;-83
2022/03/04 12:33:35;;;;;;;22.98;12.23;;;9.50;88.20;;;;;;5074463;28;20476;-83
2022/03/04 12:36:03;;;;;;;21.80;12.30;;;9.50;88.10;;;;;;5074356;28;20404;-83
2022/03/04 12:38:37;;;;;;;20.30;11.85;;;9.50;88.00;;;;;;5073495;28;20025;-83